<?xml version="1.0" encoding="UTF-8" standalone="no" ?><gpx xmlns="http://www.topografix.com/GPX/1/1" xmlns:gpxx="http://www.garmin.com/xmlschemas/GpxExtensions/v3" xmlns:wptx1="http://www.garmin.com/xmlschemas/WaypointExtension/v1" xmlns:gpxtpx="http://www.garmin.com/xmlschemas/TrackPointExtension/v1" creator="GuideVTT.com" version="1.1" xmlns:xsi="http://www.w3.org/2001/XMLSchema-instance" xsi:schemaLocation="http://www.topografix.com/GPX/1/1 http://www.topografix.com/GPX/1/1/gpx.xsd http://www.garmin.com/xmlschemas/GpxExtensions/v3 http://www8.garmin.com/xmlschemas/GpxExtensionsv3.xsd http://www.garmin.com/xmlschemas/WaypointExtension/v1 http://www8.garmin.com/xmlschemas/WaypointExtensionv1.xsd http://www.garmin.com/xmlschemas/TrackPointExtension/v1 http://www.garmin.com/xmlschemas/TrackPointExtensionv1.xsd">
<metadata><link href="http://www.garmin.com"><text>Garmin International</text></link><time>2013-06-22T15:13:50Z</time></metadata>
<trk><name>tracevtt2008-05-03-2.gpx</name><extensions><gpxx:TrackExtension><gpxx:DisplayColor>Cyan</gpxx:DisplayColor></gpxx:TrackExtension></extensions><trkseg>
<trkpt lat="45.14693333" lon="5.74508333"><ele></ele><time>2014-5-17T7:40:24Z</time></trkpt>
<trkpt lat="45.14720000" lon="5.74541667"><ele></ele><time>2014-5-17T7:40:27Z</time></trkpt>
<trkpt lat="45.14735000" lon="5.74576667"><ele></ele><time>2014-5-17T7:40:30Z</time></trkpt>
<trkpt lat="45.14755000" lon="5.74631667"><ele></ele><time>2014-5-17T7:40:33Z</time></trkpt>
<trkpt lat="45.14796667" lon="5.74761667"><ele></ele><time>2014-5-17T7:40:36Z</time></trkpt>
<trkpt lat="45.14771667" lon="5.74788333"><ele></ele><time>2014-5-17T7:40:39Z</time></trkpt>
<trkpt lat="45.14746667" lon="5.74806667"><ele></ele><time>2014-5-17T7:40:42Z</time></trkpt>
<trkpt lat="45.14738333" lon="5.74856667"><ele></ele><time>2014-5-17T7:40:45Z</time></trkpt>
<trkpt lat="45.14730000" lon="5.74886667"><ele></ele><time>2014-5-17T7:40:48Z</time></trkpt>
<trkpt lat="45.14736667" lon="5.74826667"><ele></ele><time>2014-5-17T7:40:51Z</time></trkpt>
<trkpt lat="45.14730000" lon="5.74785000"><ele></ele><time>2014-5-17T7:40:54Z</time></trkpt>
<trkpt lat="45.14698333" lon="5.74761667"><ele></ele><time>2014-5-17T7:40:57Z</time></trkpt>
<trkpt lat="45.14660000" lon="5.74763333"><ele></ele><time>2014-5-17T7:41:0Z</time></trkpt>
<trkpt lat="45.14555000" lon="5.74821667"><ele></ele><time>2014-5-17T7:41:3Z</time></trkpt>
<trkpt lat="45.14386667" lon="5.74853333"><ele></ele><time>2014-5-17T7:41:6Z</time></trkpt>
<trkpt lat="45.13935000" lon="5.75063333"><ele></ele><time>2014-5-17T7:41:9Z</time></trkpt>
<trkpt lat="45.13881667" lon="5.75055000"><ele></ele><time>2014-5-17T7:41:12Z</time></trkpt>
<trkpt lat="45.13840000" lon="5.75020000"><ele></ele><time>2014-5-17T7:41:15Z</time></trkpt>
<trkpt lat="45.13786667" lon="5.74925000"><ele></ele><time>2014-5-17T7:41:18Z</time></trkpt>
<trkpt lat="45.13768333" lon="5.74901667"><ele></ele><time>2014-5-17T7:41:21Z</time></trkpt>
<trkpt lat="45.13750000" lon="5.74868333"><ele></ele><time>2014-5-17T7:41:24Z</time></trkpt>
<trkpt lat="45.13750000" lon="5.74840000"><ele></ele><time>2014-5-17T7:41:27Z</time></trkpt>
<trkpt lat="45.13725000" lon="5.74865000"><ele></ele><time>2014-5-17T7:41:30Z</time></trkpt>
<trkpt lat="45.13651667" lon="5.74865000"><ele></ele><time>2014-5-17T7:41:33Z</time></trkpt>
<trkpt lat="45.13633333" lon="5.74880000"><ele></ele><time>2014-5-17T7:41:36Z</time></trkpt>
<trkpt lat="45.13611667" lon="5.74906667"><ele></ele><time>2014-5-17T7:41:39Z</time></trkpt>
<trkpt lat="45.13596667" lon="5.74916667"><ele></ele><time>2014-5-17T7:41:42Z</time></trkpt>
<trkpt lat="45.13566667" lon="5.74921667"><ele></ele><time>2014-5-17T7:41:45Z</time></trkpt>
<trkpt lat="45.13545000" lon="5.74928333"><ele></ele><time>2014-5-17T7:41:48Z</time></trkpt>
<trkpt lat="45.13523333" lon="5.74931667"><ele></ele><time>2014-5-17T7:41:51Z</time></trkpt>
<trkpt lat="45.13501667" lon="5.74953333"><ele></ele><time>2014-5-17T7:41:54Z</time></trkpt>
<trkpt lat="45.13498333" lon="5.74975000"><ele></ele><time>2014-5-17T7:41:57Z</time></trkpt>
<trkpt lat="45.13490000" lon="5.75006667"><ele></ele><time>2014-5-17T7:42:0Z</time></trkpt>
<trkpt lat="45.13475000" lon="5.75028333"><ele></ele><time>2014-5-17T7:42:3Z</time></trkpt>
<trkpt lat="45.13456667" lon="5.75050000"><ele></ele><time>2014-5-17T7:42:6Z</time></trkpt>
<trkpt lat="45.13441667" lon="5.75071667"><ele></ele><time>2014-5-17T7:42:9Z</time></trkpt>
<trkpt lat="45.13426667" lon="5.75081667"><ele></ele><time>2014-5-17T7:42:12Z</time></trkpt>
<trkpt lat="45.13416667" lon="5.75051667"><ele></ele><time>2014-5-17T7:42:15Z</time></trkpt>
<trkpt lat="45.13413333" lon="5.75028333"><ele></ele><time>2014-5-17T7:42:18Z</time></trkpt>
<trkpt lat="45.13413333" lon="5.75001667"><ele></ele><time>2014-5-17T7:42:21Z</time></trkpt>
<trkpt lat="45.13431667" lon="5.74981667"><ele></ele><time>2014-5-17T7:42:24Z</time></trkpt>
<trkpt lat="45.13413333" lon="5.74978333"><ele></ele><time>2014-5-17T7:42:27Z</time></trkpt>
<trkpt lat="45.13381667" lon="5.74981667"><ele></ele><time>2014-5-17T7:42:30Z</time></trkpt>
<trkpt lat="45.13365000" lon="5.74978333"><ele></ele><time>2014-5-17T7:42:33Z</time></trkpt>
<trkpt lat="45.13348333" lon="5.74991667"><ele></ele><time>2014-5-17T7:42:36Z</time></trkpt>
<trkpt lat="45.13330000" lon="5.75010000"><ele></ele><time>2014-5-17T7:42:39Z</time></trkpt>
<trkpt lat="45.13296667" lon="5.75036667"><ele></ele><time>2014-5-17T7:42:42Z</time></trkpt>
<trkpt lat="45.13236667" lon="5.75073333"><ele></ele><time>2014-5-17T7:42:45Z</time></trkpt>
<trkpt lat="45.13203333" lon="5.75096667"><ele></ele><time>2014-5-17T7:42:48Z</time></trkpt>
<trkpt lat="45.13150000" lon="5.75138333"><ele></ele><time>2014-5-17T7:42:51Z</time></trkpt>
<trkpt lat="45.13116667" lon="5.75173333"><ele></ele><time>2014-5-17T7:42:54Z</time></trkpt>
<trkpt lat="45.13081667" lon="5.75188333"><ele></ele><time>2014-5-17T7:42:57Z</time></trkpt>
<trkpt lat="45.12996667" lon="5.75216667"><ele></ele><time>2014-5-17T7:43:0Z</time></trkpt>
<trkpt lat="45.12748333" lon="5.75386667"><ele></ele><time>2014-5-17T7:43:3Z</time></trkpt>
<trkpt lat="45.12733333" lon="5.75403333"><ele></ele><time>2014-5-17T7:43:6Z</time></trkpt>
<trkpt lat="45.12760000" lon="5.75358333"><ele></ele><time>2014-5-17T7:43:9Z</time></trkpt>
<trkpt lat="45.12791667" lon="5.75328333"><ele></ele><time>2014-5-17T7:43:12Z</time></trkpt>
<trkpt lat="45.12800000" lon="5.75305000"><ele></ele><time>2014-5-17T7:43:15Z</time></trkpt>
<trkpt lat="45.12828333" lon="5.75280000"><ele></ele><time>2014-5-17T7:43:18Z</time></trkpt>
<trkpt lat="45.12856667" lon="5.75250000"><ele></ele><time>2014-5-17T7:43:21Z</time></trkpt>
<trkpt lat="45.12875000" lon="5.75216667"><ele></ele><time>2014-5-17T7:43:24Z</time></trkpt>
<trkpt lat="45.12886667" lon="5.75188333"><ele></ele><time>2014-5-17T7:43:27Z</time></trkpt>
<trkpt lat="45.12883333" lon="5.75168333"><ele></ele><time>2014-5-17T7:43:30Z</time></trkpt>
<trkpt lat="45.12900000" lon="5.75148333"><ele></ele><time>2014-5-17T7:43:33Z</time></trkpt>
<trkpt lat="45.12921667" lon="5.75143333"><ele></ele><time>2014-5-17T7:43:36Z</time></trkpt>
<trkpt lat="45.12946667" lon="5.75113333"><ele></ele><time>2014-5-17T7:43:39Z</time></trkpt>
<trkpt lat="45.12963333" lon="5.75073333"><ele></ele><time>2014-5-17T7:43:42Z</time></trkpt>
<trkpt lat="45.12991667" lon="5.75061667"><ele></ele><time>2014-5-17T7:43:45Z</time></trkpt>
<trkpt lat="45.13028333" lon="5.75041667"><ele></ele><time>2014-5-17T7:43:48Z</time></trkpt>
<trkpt lat="45.13033333" lon="5.74995000"><ele></ele><time>2014-5-17T7:43:51Z</time></trkpt>
<trkpt lat="45.13055000" lon="5.74986667"><ele></ele><time>2014-5-17T7:43:54Z</time></trkpt>
<trkpt lat="45.13096667" lon="5.74970000"><ele></ele><time>2014-5-17T7:43:57Z</time></trkpt>
<trkpt lat="45.13133333" lon="5.74968333"><ele></ele><time>2014-5-17T7:44:0Z</time></trkpt>
<trkpt lat="45.13168333" lon="5.74951667"><ele></ele><time>2014-5-17T7:44:3Z</time></trkpt>
<trkpt lat="45.13203333" lon="5.74923333"><ele></ele><time>2014-5-17T7:44:6Z</time></trkpt>
<trkpt lat="45.13213333" lon="5.74891667"><ele></ele><time>2014-5-17T7:44:9Z</time></trkpt>
<trkpt lat="45.13218333" lon="5.74856667"><ele></ele><time>2014-5-17T7:44:12Z</time></trkpt>
<trkpt lat="45.13200000" lon="5.74840000"><ele></ele><time>2014-5-17T7:44:15Z</time></trkpt>
<trkpt lat="45.13178333" lon="5.74828333"><ele></ele><time>2014-5-17T7:44:18Z</time></trkpt>
<trkpt lat="45.13146667" lon="5.74813333"><ele></ele><time>2014-5-17T7:44:21Z</time></trkpt>
<trkpt lat="45.13123333" lon="5.74795000"><ele></ele><time>2014-5-17T7:44:24Z</time></trkpt>
<trkpt lat="45.13100000" lon="5.74771667"><ele></ele><time>2014-5-17T7:44:27Z</time></trkpt>
<trkpt lat="45.13086667" lon="5.74760000"><ele></ele><time>2014-5-17T7:44:30Z</time></trkpt>
<trkpt lat="45.13068333" lon="5.74751667"><ele></ele><time>2014-5-17T7:44:33Z</time></trkpt>
<trkpt lat="45.13055000" lon="5.74735000"><ele></ele><time>2014-5-17T7:44:36Z</time></trkpt>
<trkpt lat="45.13035000" lon="5.74728333"><ele></ele><time>2014-5-17T7:44:39Z</time></trkpt>
<trkpt lat="45.13005000" lon="5.74743333"><ele></ele><time>2014-5-17T7:44:42Z</time></trkpt>
<trkpt lat="45.12986667" lon="5.74755000"><ele></ele><time>2014-5-17T7:44:45Z</time></trkpt>
<trkpt lat="45.12956667" lon="5.74760000"><ele></ele><time>2014-5-17T7:44:48Z</time></trkpt>
<trkpt lat="45.12940000" lon="5.74768333"><ele></ele><time>2014-5-17T7:44:51Z</time></trkpt>
<trkpt lat="45.12918333" lon="5.74780000"><ele></ele><time>2014-5-17T7:44:54Z</time></trkpt>
<trkpt lat="45.12880000" lon="5.74783333"><ele></ele><time>2014-5-17T7:44:57Z</time></trkpt>
<trkpt lat="45.12853333" lon="5.74791667"><ele></ele><time>2014-5-17T7:45:0Z</time></trkpt>
<trkpt lat="45.12833333" lon="5.74801667"><ele></ele><time>2014-5-17T7:45:3Z</time></trkpt>
<trkpt lat="45.12800000" lon="5.74805000"><ele></ele><time>2014-5-17T7:45:6Z</time></trkpt>
<trkpt lat="45.12778333" lon="5.74770000"><ele></ele><time>2014-5-17T7:45:9Z</time></trkpt>
<trkpt lat="45.12788333" lon="5.74730000"><ele></ele><time>2014-5-17T7:45:12Z</time></trkpt>
<trkpt lat="45.12778333" lon="5.74708333"><ele></ele><time>2014-5-17T7:45:15Z</time></trkpt>
<trkpt lat="45.12731667" lon="5.74655000"><ele></ele><time>2014-5-17T7:45:18Z</time></trkpt>
<trkpt lat="45.12710000" lon="5.74616667"><ele></ele><time>2014-5-17T7:45:21Z</time></trkpt>
<trkpt lat="45.12661667" lon="5.74656667"><ele></ele><time>2014-5-17T7:45:24Z</time></trkpt>
<trkpt lat="45.12623333" lon="5.74680000"><ele></ele><time>2014-5-17T7:45:27Z</time></trkpt>
<trkpt lat="45.12608333" lon="5.74695000"><ele></ele><time>2014-5-17T7:45:30Z</time></trkpt>
<trkpt lat="45.12555000" lon="5.74760000"><ele></ele><time>2014-5-17T7:45:33Z</time></trkpt>
<trkpt lat="45.12491667" lon="5.74883333"><ele></ele><time>2014-5-17T7:45:36Z</time></trkpt>
<trkpt lat="45.12470000" lon="5.74913333"><ele></ele><time>2014-5-17T7:45:39Z</time></trkpt>
<trkpt lat="45.12425000" lon="5.74958333"><ele></ele><time>2014-5-17T7:45:42Z</time></trkpt>
<trkpt lat="45.12366667" lon="5.75073333"><ele></ele><time>2014-5-17T7:45:45Z</time></trkpt>
<trkpt lat="45.12335000" lon="5.75126667"><ele></ele><time>2014-5-17T7:45:48Z</time></trkpt>
<trkpt lat="45.12293333" lon="5.75180000"><ele></ele><time>2014-5-17T7:45:51Z</time></trkpt>
<trkpt lat="45.12211667" lon="5.75210000"><ele></ele><time>2014-5-17T7:45:54Z</time></trkpt>
<trkpt lat="45.12155000" lon="5.75285000"><ele></ele><time>2014-5-17T7:45:57Z</time></trkpt>
<trkpt lat="45.12088333" lon="5.75423333"><ele></ele><time>2014-5-17T7:46:0Z</time></trkpt>
<trkpt lat="45.11938333" lon="5.75446667"><ele></ele><time>2014-5-17T7:46:3Z</time></trkpt>
<trkpt lat="45.11715000" lon="5.75566667"><ele></ele><time>2014-5-17T7:46:6Z</time></trkpt>
<trkpt lat="45.11635000" lon="5.75643333"><ele></ele><time>2014-5-17T7:46:9Z</time></trkpt>
<trkpt lat="45.11576667" lon="5.75598333"><ele></ele><time>2014-5-17T7:46:12Z</time></trkpt>
<trkpt lat="45.11536667" lon="5.75543333"><ele></ele><time>2014-5-17T7:46:15Z</time></trkpt>
<trkpt lat="45.11551667" lon="5.75400000"><ele></ele><time>2014-5-17T7:46:18Z</time></trkpt>
<trkpt lat="45.11555000" lon="5.75226667"><ele></ele><time>2014-5-17T7:46:21Z</time></trkpt>
<trkpt lat="45.11570000" lon="5.75090000"><ele></ele><time>2014-5-17T7:46:24Z</time></trkpt>
<trkpt lat="45.11626667" lon="5.75015000"><ele></ele><time>2014-5-17T7:46:27Z</time></trkpt>
<trkpt lat="45.11736667" lon="5.74838333"><ele></ele><time>2014-5-17T7:46:30Z</time></trkpt>
<trkpt lat="45.11795000" lon="5.74761667"><ele></ele><time>2014-5-17T7:46:33Z</time></trkpt>
<trkpt lat="45.11585000" lon="5.74708333"><ele></ele><time>2014-5-17T7:46:36Z</time></trkpt>
<trkpt lat="45.11553333" lon="5.74693333"><ele></ele><time>2014-5-17T7:46:39Z</time></trkpt>
<trkpt lat="45.11495000" lon="5.74663333"><ele></ele><time>2014-5-17T7:46:42Z</time></trkpt>
<trkpt lat="45.11453333" lon="5.74656667"><ele></ele><time>2014-5-17T7:46:45Z</time></trkpt>
<trkpt lat="45.11290000" lon="5.74555000"><ele></ele><time>2014-5-17T7:46:48Z</time></trkpt>
<trkpt lat="45.11248333" lon="5.74526667"><ele></ele><time>2014-5-17T7:46:51Z</time></trkpt>
<trkpt lat="45.11203333" lon="5.74503333"><ele></ele><time>2014-5-17T7:46:54Z</time></trkpt>
<trkpt lat="45.11076667" lon="5.74468333"><ele></ele><time>2014-5-17T7:46:57Z</time></trkpt>
<trkpt lat="45.11001667" lon="5.74425000"><ele></ele><time>2014-5-17T7:47:0Z</time></trkpt>
<trkpt lat="45.10893333" lon="5.74403333"><ele></ele><time>2014-5-17T7:47:3Z</time></trkpt>
<trkpt lat="45.10853333" lon="5.74406667"><ele></ele><time>2014-5-17T7:47:6Z</time></trkpt>
<trkpt lat="45.10838333" lon="5.74368333"><ele></ele><time>2014-5-17T7:47:9Z</time></trkpt>
<trkpt lat="45.10825000" lon="5.74323333"><ele></ele><time>2014-5-17T7:47:12Z</time></trkpt>
<trkpt lat="45.10803333" lon="5.74273333"><ele></ele><time>2014-5-17T7:47:15Z</time></trkpt>
<trkpt lat="45.10801667" lon="5.74243333"><ele></ele><time>2014-5-17T7:47:18Z</time></trkpt>
<trkpt lat="45.10813333" lon="5.74216667"><ele></ele><time>2014-5-17T7:47:21Z</time></trkpt>
<trkpt lat="45.10801667" lon="5.74190000"><ele></ele><time>2014-5-17T7:47:24Z</time></trkpt>
<trkpt lat="45.10783333" lon="5.74170000"><ele></ele><time>2014-5-17T7:47:27Z</time></trkpt>
<trkpt lat="45.10730000" lon="5.74118333"><ele></ele><time>2014-5-17T7:47:30Z</time></trkpt>
<trkpt lat="45.10698333" lon="5.74060000"><ele></ele><time>2014-5-17T7:47:33Z</time></trkpt>
<trkpt lat="45.10688333" lon="5.74028333"><ele></ele><time>2014-5-17T7:47:36Z</time></trkpt>
<trkpt lat="45.10660000" lon="5.73973333"><ele></ele><time>2014-5-17T7:47:39Z</time></trkpt>
<trkpt lat="45.10630000" lon="5.73940000"><ele></ele><time>2014-5-17T7:47:42Z</time></trkpt>
<trkpt lat="45.10615000" lon="5.73925000"><ele></ele><time>2014-5-17T7:47:45Z</time></trkpt>
<trkpt lat="45.10601667" lon="5.73898333"><ele></ele><time>2014-5-17T7:47:48Z</time></trkpt>
<trkpt lat="45.10533333" lon="5.73810000"><ele></ele><time>2014-5-17T7:47:51Z</time></trkpt>
<trkpt lat="45.10476667" lon="5.73751667"><ele></ele><time>2014-5-17T7:47:54Z</time></trkpt>
<trkpt lat="45.10445000" lon="5.73726667"><ele></ele><time>2014-5-17T7:47:57Z</time></trkpt>
<trkpt lat="45.10420000" lon="5.73701667"><ele></ele><time>2014-5-17T7:48:0Z</time></trkpt>
<trkpt lat="45.10338333" lon="5.73648333"><ele></ele><time>2014-5-17T7:48:3Z</time></trkpt>
<trkpt lat="45.10303333" lon="5.73625000"><ele></ele><time>2014-5-17T7:48:6Z</time></trkpt>
<trkpt lat="45.10221667" lon="5.73541667"><ele></ele><time>2014-5-17T7:48:9Z</time></trkpt>
<trkpt lat="45.10200000" lon="5.73523333"><ele></ele><time>2014-5-17T7:48:12Z</time></trkpt>
<trkpt lat="45.10150000" lon="5.73448333"><ele></ele><time>2014-5-17T7:48:15Z</time></trkpt>
<trkpt lat="45.10116667" lon="5.73420000"><ele></ele><time>2014-5-17T7:48:18Z</time></trkpt>
<trkpt lat="45.10095000" lon="5.73395000"><ele></ele><time>2014-5-17T7:48:21Z</time></trkpt>
<trkpt lat="45.10073333" lon="5.73341667"><ele></ele><time>2014-5-17T7:48:24Z</time></trkpt>
<trkpt lat="45.10045000" lon="5.73323333"><ele></ele><time>2014-5-17T7:48:27Z</time></trkpt>
<trkpt lat="45.10021667" lon="5.73288333"><ele></ele><time>2014-5-17T7:48:30Z</time></trkpt>
<trkpt lat="45.09975000" lon="5.73208333"><ele></ele><time>2014-5-17T7:48:33Z</time></trkpt>
<trkpt lat="45.09963333" lon="5.73173333"><ele></ele><time>2014-5-17T7:48:36Z</time></trkpt>
<trkpt lat="45.09960000" lon="5.73115000"><ele></ele><time>2014-5-17T7:48:39Z</time></trkpt>
<trkpt lat="45.09920000" lon="5.73091667"><ele></ele><time>2014-5-17T7:48:42Z</time></trkpt>
<trkpt lat="45.09808333" lon="5.73023333"><ele></ele><time>2014-5-17T7:48:45Z</time></trkpt>
<trkpt lat="45.09798333" lon="5.72998333"><ele></ele><time>2014-5-17T7:48:48Z</time></trkpt>
<trkpt lat="45.09746667" lon="5.72981667"><ele></ele><time>2014-5-17T7:48:51Z</time></trkpt>
<trkpt lat="45.09721667" lon="5.72936667"><ele></ele><time>2014-5-17T7:48:54Z</time></trkpt>
<trkpt lat="45.09713333" lon="5.72918333"><ele></ele><time>2014-5-17T7:48:57Z</time></trkpt>
<trkpt lat="45.09723333" lon="5.72970000"><ele></ele><time>2014-5-17T7:49:0Z</time></trkpt>
<trkpt lat="45.09741667" lon="5.72976667"><ele></ele><time>2014-5-17T7:49:3Z</time></trkpt>
<trkpt lat="45.09780000" lon="5.72978333"><ele></ele><time>2014-5-17T7:49:6Z</time></trkpt>
<trkpt lat="45.09813333" lon="5.72983333"><ele></ele><time>2014-5-17T7:49:9Z</time></trkpt>
<trkpt lat="45.09938333" lon="5.72995000"><ele></ele><time>2014-5-17T7:49:12Z</time></trkpt>
<trkpt lat="45.10238333" lon="5.73020000"><ele></ele><time>2014-5-17T7:49:15Z</time></trkpt>
<trkpt lat="45.10313333" lon="5.73031667"><ele></ele><time>2014-5-17T7:49:18Z</time></trkpt>
<trkpt lat="45.10343333" lon="5.73050000"><ele></ele><time>2014-5-17T7:49:21Z</time></trkpt>
<trkpt lat="45.10405000" lon="5.73066667"><ele></ele><time>2014-5-17T7:49:24Z</time></trkpt>
<trkpt lat="45.10545000" lon="5.73051667"><ele></ele><time>2014-5-17T7:49:27Z</time></trkpt>
<trkpt lat="45.10570000" lon="5.73050000"><ele></ele><time>2014-5-17T7:49:30Z</time></trkpt>
<trkpt lat="45.10606667" lon="5.73041667"><ele></ele><time>2014-5-17T7:49:33Z</time></trkpt>
<trkpt lat="45.10653333" lon="5.73008333"><ele></ele><time>2014-5-17T7:49:36Z</time></trkpt>
<trkpt lat="45.10700000" lon="5.73008333"><ele></ele><time>2014-5-17T7:49:39Z</time></trkpt>
<trkpt lat="45.10780000" lon="5.72998333"><ele></ele><time>2014-5-17T7:49:42Z</time></trkpt>
<trkpt lat="45.10823333" lon="5.73041667"><ele></ele><time>2014-5-17T7:49:45Z</time></trkpt>
<trkpt lat="45.10876667" lon="5.73075000"><ele></ele><time>2014-5-17T7:49:48Z</time></trkpt>
<trkpt lat="45.10885000" lon="5.73101667"><ele></ele><time>2014-5-17T7:49:51Z</time></trkpt>
<trkpt lat="45.10915000" lon="5.73081667"><ele></ele><time>2014-5-17T7:49:54Z</time></trkpt>
<trkpt lat="45.11075000" lon="5.72971667"><ele></ele><time>2014-5-17T7:49:57Z</time></trkpt>
<trkpt lat="45.11133333" lon="5.72906667"><ele></ele><time>2014-5-17T7:50:0Z</time></trkpt>
<trkpt lat="45.11198333" lon="5.72903333"><ele></ele><time>2014-5-17T7:50:3Z</time></trkpt>
<trkpt lat="45.11250000" lon="5.72903333"><ele></ele><time>2014-5-17T7:50:6Z</time></trkpt>
<trkpt lat="45.11330000" lon="5.72921667"><ele></ele><time>2014-5-17T7:50:9Z</time></trkpt>
<trkpt lat="45.11388333" lon="5.72945000"><ele></ele><time>2014-5-17T7:50:12Z</time></trkpt>
<trkpt lat="45.11368333" lon="5.72838333"><ele></ele><time>2014-5-17T7:50:15Z</time></trkpt>
<trkpt lat="45.11380000" lon="5.72793333"><ele></ele><time>2014-5-17T7:50:18Z</time></trkpt>
<trkpt lat="45.11410000" lon="5.72698333"><ele></ele><time>2014-5-17T7:50:21Z</time></trkpt>
<trkpt lat="45.11453333" lon="5.72608333"><ele></ele><time>2014-5-17T7:50:24Z</time></trkpt>
<trkpt lat="45.11470000" lon="5.72551667"><ele></ele><time>2014-5-17T7:50:27Z</time></trkpt>
<trkpt lat="45.11473333" lon="5.72508333"><ele></ele><time>2014-5-17T7:50:30Z</time></trkpt>
<trkpt lat="45.11508333" lon="5.72375000"><ele></ele><time>2014-5-17T7:50:33Z</time></trkpt>
<trkpt lat="45.11680000" lon="5.72226667"><ele></ele><time>2014-5-17T7:50:36Z</time></trkpt>
<trkpt lat="45.11711667" lon="5.72213333"><ele></ele><time>2014-5-17T7:50:39Z</time></trkpt>
<trkpt lat="45.11775000" lon="5.72200000"><ele></ele><time>2014-5-17T7:50:42Z</time></trkpt>
<trkpt lat="45.11810000" lon="5.72180000"><ele></ele><time>2014-5-17T7:50:45Z</time></trkpt>
<trkpt lat="45.12093333" lon="5.71990000"><ele></ele><time>2014-5-17T7:50:48Z</time></trkpt>
<trkpt lat="45.12201667" lon="5.71953333"><ele></ele><time>2014-5-17T7:50:51Z</time></trkpt>
<trkpt lat="45.12456667" lon="5.71970000"><ele></ele><time>2014-5-17T7:50:54Z</time></trkpt>
<trkpt lat="45.12523333" lon="5.71940000"><ele></ele><time>2014-5-17T7:50:57Z</time></trkpt>
<trkpt lat="45.12651667" lon="5.71816667"><ele></ele><time>2014-5-17T7:51:0Z</time></trkpt>
<trkpt lat="45.12686667" lon="5.71790000"><ele></ele><time>2014-5-17T7:51:3Z</time></trkpt>
<trkpt lat="45.12703333" lon="5.71765000"><ele></ele><time>2014-5-17T7:51:6Z</time></trkpt>
<trkpt lat="45.12790000" lon="5.71721667"><ele></ele><time>2014-5-17T7:51:9Z</time></trkpt>
<trkpt lat="45.12811667" lon="5.71691667"><ele></ele><time>2014-5-17T7:51:12Z</time></trkpt>
<trkpt lat="45.12820000" lon="5.71633333"><ele></ele><time>2014-5-17T7:51:15Z</time></trkpt>
<trkpt lat="45.12841667" lon="5.71591667"><ele></ele><time>2014-5-17T7:51:18Z</time></trkpt>
<trkpt lat="45.12863333" lon="5.71550000"><ele></ele><time>2014-5-17T7:51:21Z</time></trkpt>
<trkpt lat="45.12883333" lon="5.71515000"><ele></ele><time>2014-5-17T7:51:24Z</time></trkpt>
<trkpt lat="45.12880000" lon="5.71485000"><ele></ele><time>2014-5-17T7:51:27Z</time></trkpt>
<trkpt lat="45.12893333" lon="5.71436667"><ele></ele><time>2014-5-17T7:51:30Z</time></trkpt>
<trkpt lat="45.12920000" lon="5.71410000"><ele></ele><time>2014-5-17T7:51:33Z</time></trkpt>
<trkpt lat="45.12975000" lon="5.71355000"><ele></ele><time>2014-5-17T7:51:36Z</time></trkpt>
<trkpt lat="45.12993333" lon="5.71330000"><ele></ele><time>2014-5-17T7:51:39Z</time></trkpt>
<trkpt lat="45.13016667" lon="5.71335000"><ele></ele><time>2014-5-17T7:51:42Z</time></trkpt>
<trkpt lat="45.13055000" lon="5.71295000"><ele></ele><time>2014-5-17T7:51:45Z</time></trkpt>
<trkpt lat="45.13080000" lon="5.71280000"><ele></ele><time>2014-5-17T7:51:48Z</time></trkpt>
<trkpt lat="45.13111667" lon="5.71271667"><ele></ele><time>2014-5-17T7:51:51Z</time></trkpt>
<trkpt lat="45.13165000" lon="5.71263333"><ele></ele><time>2014-5-17T7:51:54Z</time></trkpt>
<trkpt lat="45.13138333" lon="5.71300000"><ele></ele><time>2014-5-17T7:51:57Z</time></trkpt>
<trkpt lat="45.13188333" lon="5.71311667"><ele></ele><time>2014-5-17T7:52:0Z</time></trkpt>
<trkpt lat="45.13270000" lon="5.71315000"><ele></ele><time>2014-5-17T7:52:3Z</time></trkpt>
<trkpt lat="45.13295000" lon="5.71335000"><ele></ele><time>2014-5-17T7:52:6Z</time></trkpt>
<trkpt lat="45.13358333" lon="5.71376667"><ele></ele><time>2014-5-17T7:52:9Z</time></trkpt>
<trkpt lat="45.13395000" lon="5.71395000"><ele></ele><time>2014-5-17T7:52:12Z</time></trkpt>
<trkpt lat="45.13415000" lon="5.71416667"><ele></ele><time>2014-5-17T7:52:15Z</time></trkpt>
<trkpt lat="45.13445000" lon="5.71433333"><ele></ele><time>2014-5-17T7:52:18Z</time></trkpt>
<trkpt lat="45.13465000" lon="5.71440000"><ele></ele><time>2014-5-17T7:52:21Z</time></trkpt>
<trkpt lat="45.13495000" lon="5.71453333"><ele></ele><time>2014-5-17T7:52:24Z</time></trkpt>
<trkpt lat="45.13541667" lon="5.71511667"><ele></ele><time>2014-5-17T7:52:27Z</time></trkpt>
<trkpt lat="45.13596667" lon="5.71533333"><ele></ele><time>2014-5-17T7:52:30Z</time></trkpt>
<trkpt lat="45.13690000" lon="5.71641667"><ele></ele><time>2014-5-17T7:52:33Z</time></trkpt>
<trkpt lat="45.13725000" lon="5.71688333"><ele></ele><time>2014-5-17T7:52:36Z</time></trkpt>
<trkpt lat="45.13818333" lon="5.71790000"><ele></ele><time>2014-5-17T7:52:39Z</time></trkpt>
<trkpt lat="45.13870000" lon="5.71896667"><ele></ele><time>2014-5-17T7:52:42Z</time></trkpt>
<trkpt lat="45.13905000" lon="5.72003333"><ele></ele><time>2014-5-17T7:52:45Z</time></trkpt>
<trkpt lat="45.13910000" lon="5.72041667"><ele></ele><time>2014-5-17T7:52:48Z</time></trkpt>
<trkpt lat="45.13955000" lon="5.72105000"><ele></ele><time>2014-5-17T7:52:51Z</time></trkpt>
<trkpt lat="45.13931667" lon="5.72151667"><ele></ele><time>2014-5-17T7:52:54Z</time></trkpt>
<trkpt lat="45.13915000" lon="5.72178333"><ele></ele><time>2014-5-17T7:52:57Z</time></trkpt>
<trkpt lat="45.13886667" lon="5.72193333"><ele></ele><time>2014-5-17T7:53:0Z</time></trkpt>
<trkpt lat="45.13881667" lon="5.72255000"><ele></ele><time>2014-5-17T7:53:3Z</time></trkpt>
<trkpt lat="45.13901667" lon="5.72311667"><ele></ele><time>2014-5-17T7:53:6Z</time></trkpt>
<trkpt lat="45.13925000" lon="5.72390000"><ele></ele><time>2014-5-17T7:53:9Z</time></trkpt>
<trkpt lat="45.13933333" lon="5.72450000"><ele></ele><time>2014-5-17T7:53:12Z</time></trkpt>
<trkpt lat="45.13901667" lon="5.72503333"><ele></ele><time>2014-5-17T7:53:15Z</time></trkpt>
<trkpt lat="45.13918333" lon="5.72498333"><ele></ele><time>2014-5-17T7:53:18Z</time></trkpt>
<trkpt lat="45.13940000" lon="5.72530000"><ele></ele><time>2014-5-17T7:53:21Z</time></trkpt>
<trkpt lat="45.13941667" lon="5.72580000"><ele></ele><time>2014-5-17T7:53:24Z</time></trkpt>
<trkpt lat="45.13948333" lon="5.72616667"><ele></ele><time>2014-5-17T7:53:27Z</time></trkpt>
<trkpt lat="45.13960000" lon="5.72643333"><ele></ele><time>2014-5-17T7:53:30Z</time></trkpt>
<trkpt lat="45.13966667" lon="5.72688333"><ele></ele><time>2014-5-17T7:53:33Z</time></trkpt>
<trkpt lat="45.13981667" lon="5.72745000"><ele></ele><time>2014-5-17T7:53:36Z</time></trkpt>
<trkpt lat="45.14000000" lon="5.72810000"><ele></ele><time>2014-5-17T7:53:39Z</time></trkpt>
<trkpt lat="45.14026667" lon="5.72951667"><ele></ele><time>2014-5-17T7:53:42Z</time></trkpt>
<trkpt lat="45.14026667" lon="5.72988333"><ele></ele><time>2014-5-17T7:53:45Z</time></trkpt>
<trkpt lat="45.14040000" lon="5.73046667"><ele></ele><time>2014-5-17T7:53:48Z</time></trkpt>
<trkpt lat="45.14045000" lon="5.73086667"><ele></ele><time>2014-5-17T7:53:51Z</time></trkpt>
<trkpt lat="45.14053333" lon="5.73128333"><ele></ele><time>2014-5-17T7:53:54Z</time></trkpt>
<trkpt lat="45.14065000" lon="5.73243333"><ele></ele><time>2014-5-17T7:53:57Z</time></trkpt>
<trkpt lat="45.14051667" lon="5.73275000"><ele></ele><time>2014-5-17T7:54:0Z</time></trkpt>
<trkpt lat="45.14066667" lon="5.73641667"><ele></ele><time>2014-5-17T7:54:3Z</time></trkpt>
<trkpt lat="45.14038333" lon="5.73690000"><ele></ele><time>2014-5-17T7:54:6Z</time></trkpt>
<trkpt lat="45.14016667" lon="5.73711667"><ele></ele><time>2014-5-17T7:54:9Z</time></trkpt>
<trkpt lat="45.13983333" lon="5.73781667"><ele></ele><time>2014-5-17T7:54:12Z</time></trkpt>
<trkpt lat="45.13975000" lon="5.73801667"><ele></ele><time>2014-5-17T7:54:15Z</time></trkpt>
<trkpt lat="45.13920000" lon="5.73866667"><ele></ele><time>2014-5-17T7:54:18Z</time></trkpt>
<trkpt lat="45.13903333" lon="5.73888333"><ele></ele><time>2014-5-17T7:54:21Z</time></trkpt>
<trkpt lat="45.13876667" lon="5.73910000"><ele></ele><time>2014-5-17T7:54:24Z</time></trkpt>
<trkpt lat="45.13850000" lon="5.73936667"><ele></ele><time>2014-5-17T7:54:27Z</time></trkpt>
<trkpt lat="45.13816667" lon="5.73976667"><ele></ele><time>2014-5-17T7:54:30Z</time></trkpt>
<trkpt lat="45.13796667" lon="5.73995000"><ele></ele><time>2014-5-17T7:54:33Z</time></trkpt>
<trkpt lat="45.13765000" lon="5.74021667"><ele></ele><time>2014-5-17T7:54:36Z</time></trkpt>
<trkpt lat="45.13738333" lon="5.74041667"><ele></ele><time>2014-5-17T7:54:39Z</time></trkpt>
<trkpt lat="45.13718333" lon="5.74085000"><ele></ele><time>2014-5-17T7:54:42Z</time></trkpt>
<trkpt lat="45.13706667" lon="5.74155000"><ele></ele><time>2014-5-17T7:54:45Z</time></trkpt>
<trkpt lat="45.13688333" lon="5.74231667"><ele></ele><time>2014-5-17T7:54:48Z</time></trkpt>
<trkpt lat="45.13680000" lon="5.74335000"><ele></ele><time>2014-5-17T7:54:51Z</time></trkpt>
<trkpt lat="45.13695000" lon="5.74408333"><ele></ele><time>2014-5-17T7:54:54Z</time></trkpt>
<trkpt lat="45.13731667" lon="5.74493333"><ele></ele><time>2014-5-17T7:54:57Z</time></trkpt>
<trkpt lat="45.13780000" lon="5.74796667"><ele></ele><time>2014-5-17T7:55:0Z</time></trkpt>
<trkpt lat="45.13796667" lon="5.74840000"><ele></ele><time>2014-5-17T7:55:3Z</time></trkpt>
<trkpt lat="45.13790000" lon="5.74906667"><ele></ele><time>2014-5-17T7:55:6Z</time></trkpt>
<trkpt lat="45.13836667" lon="5.75008333"><ele></ele><time>2014-5-17T7:55:9Z</time></trkpt>
<trkpt lat="45.13903333" lon="5.75056667"><ele></ele><time>2014-5-17T7:55:12Z</time></trkpt>
<trkpt lat="45.14010000" lon="5.75031667"><ele></ele><time>2014-5-17T7:55:15Z</time></trkpt>
<trkpt lat="45.14413333" lon="5.74848333"><ele></ele><time>2014-5-17T7:55:18Z</time></trkpt>
<trkpt lat="45.14571667" lon="5.74816667"><ele></ele><time>2014-5-17T7:55:21Z</time></trkpt>
<trkpt lat="45.14643333" lon="5.74770000"><ele></ele><time>2014-5-17T7:55:24Z</time></trkpt>
<trkpt lat="45.14703333" lon="5.74770000"><ele></ele><time>2014-5-17T7:55:27Z</time></trkpt>
<trkpt lat="45.14725000" lon="5.74823333"><ele></ele><time>2014-5-17T7:55:30Z</time></trkpt>
<trkpt lat="45.14710000" lon="5.74888333"><ele></ele><time>2014-5-17T7:55:33Z</time></trkpt>
<trkpt lat="45.14740000" lon="5.74815000"><ele></ele><time>2014-5-17T7:55:36Z</time></trkpt>
<trkpt lat="45.14795000" lon="5.74783333"><ele></ele><time>2014-5-17T7:55:39Z</time></trkpt>
<trkpt lat="45.14718333" lon="5.74543333"><ele></ele><time>2014-5-17T7:55:42Z</time></trkpt>
<trkpt lat="45.14611667" lon="5.74421667"><ele></ele><time>2014-5-17T7:55:45Z</time></trkpt>
<trkpt lat="45.14626667" lon="5.74375000"><ele></ele><time>2014-5-17T7:55:48Z</time></trkpt>
<trkpt lat="45.14631667" lon="5.74311667"><ele></ele><time>2014-5-17T7:55:51Z</time></trkpt>
<trkpt lat="" lon=""><ele></ele><time>2014-5-17T7:55:54Z</time></trkpt>
</trkseg></trk></gpx>